createdAt,value
2018-12-09T00:02:23.337Z,96288.64
2018-12-09T00:04:54.576Z,96285.86
2018-12-09T00:07:25.701Z,96257.38
2018-12-09T00:09:59.341Z,96250.83
2018-12-09T00:12:30.762Z,96244.26
2018-12-09T00:15:04.185Z,96210.73
2018-12-09T00:17:35.527Z,96235.30
2018-12-09T00:20:06.741Z,96237.38
2018-12-09T00:22:39.985Z,96249.31
2018-12-09T00:25:11.403Z,96254.89
2018-12-09T00:27:44.606Z,96259.96
2018-12-09T00:30:17.603Z,96249.84
2018-12-09T00:32:52.704Z,96245.08
2018-12-09T00:35:30.586Z,96251.74
2018-12-09T00:38:03.646Z,96245.08
2018-12-09T00:40:40.726Z,96243.91
2018-12-09T00:43:13.549Z,96247.54
2018-12-09T00:45:44.903Z,96250.53
2018-12-09T00:48:16.081Z,96242.98
2018-12-09T00:50:47.213Z,96248.83
2018-12-09T00:53:17.923Z,96237.96
2018-12-09T00:55:51.266Z,96244.16
2018-12-09T00:58:24.404Z,96242.63
2018-12-09T01:00:57.347Z,96216.58
2018-12-09T01:03:30.443Z,96218.42
2018-12-09T01:06:02.983Z,96213.73
2018-12-09T01:08:36.119Z,96207.22
2018-12-09T01:11:06.684Z,96204.02
2018-12-09T01:13:40.116Z,96212.40
2018-12-09T01:16:11.593Z,96205.63
2018-12-09T01:18:43.821Z,96205.93
2018-12-09T01:24:09.716Z,96195.00
2018-12-09T01:26:41.388Z,96203.30
2018-12-09T01:29:14.462Z,96198.02
2018-12-09T01:31:47.513Z,96215.78
2018-12-09T01:34:19.012Z,96202.81
2018-12-09T01:36:50.072Z,96204.03
2018-12-09T01:39:23.384Z,96194.34
2018-12-09T01:41:56.579Z,96197.21
2018-12-09T01:44:28.029Z,96185.95
2018-12-09T01:47:01.309Z,96189.84
2018-12-09T01:49:35.159Z,96184.53
2018-12-09T01:52:06.684Z,96169.99
2018-12-09T01:54:40.143Z,96174.24
2018-12-09T01:57:13.128Z,96153.45
2018-12-09T01:59:43.848Z,96153.14
2018-12-09T02:02:17.189Z,96155.52
2018-12-09T02:04:50.075Z,96147.27
2018-12-09T02:07:22.948Z,96157.36
2018-12-09T02:09:58.054Z,96157.13
2018-12-09T02:12:31.169Z,96153.50
2018-12-09T02:15:04.344Z,96167.98
2018-12-09T02:17:38.232Z,96152.90
2018-12-09T02:20:09.717Z,96146.46
2018-12-09T02:22:43.133Z,96148.38
2018-12-09T02:25:14.377Z,96168.68
2018-12-09T02:27:49.871Z,96153.45
2018-12-09T02:30:20.982Z,96152.98
2018-12-09T02:32:54.467Z,96151.09
2018-12-09T02:35:26.145Z,96164.30
2018-12-09T02:37:57.280Z,96159.31
2018-12-09T02:40:28.827Z,96171.55
2018-12-09T02:43:02.561Z,96193.91
2018-12-09T02:45:36.153Z,96198.27
2018-12-09T02:48:13.310Z,96198.97
2018-12-09T02:50:46.567Z,96221.20
2018-12-09T02:53:24.732Z,96194.58
2018-12-09T02:56:07.685Z,96171.09
2018-12-09T02:58:38.919Z,96173.30
2018-12-09T03:01:14.666Z,96172.60
2018-12-09T03:03:46.204Z,96169.30
2018-12-09T03:06:21.065Z,96177.63
2018-12-09T03:08:52.101Z,96196.83
2018-12-09T03:11:25.705Z,96217.22
2018-12-09T03:13:57.143Z,96204.48
2018-12-09T03:16:34.522Z,96211.92
2018-12-09T03:19:07.049Z,96214.34
2018-12-09T03:21:40.307Z,96202.95
2018-12-09T03:24:17.239Z,96203.79
2018-12-09T03:26:48.706Z,96199.75
2018-12-09T03:29:19.722Z,96204.05
2018-12-09T03:31:53.250Z,96209.02
2018-12-09T03:34:27.066Z,96215.61
2018-12-09T03:36:58.403Z,96226.63
2018-12-09T03:39:32.067Z,96219.45
2018-12-09T03:42:09.550Z,96217.07
2018-12-09T03:44:41.335Z,96216.95
2018-12-09T03:47:14.681Z,96214.00
2018-12-09T03:49:47.610Z,96231.05
2018-12-09T03:52:20.852Z,96247.33
2018-12-09T03:54:52.253Z,96257.96
2018-12-09T03:57:23.243Z,96249.74
2018-12-09T03:59:56.716Z,96251.97
2018-12-09T04:02:28.239Z,96267.63
2018-12-09T04:04:59.335Z,96269.05
2018-12-09T04:07:30.421Z,96266.91
2018-12-09T04:10:03.879Z,96276.06
2018-12-09T04:12:37.685Z,96290.13
2018-12-09T04:15:09.024Z,96291.41
2018-12-09T04:17:40.258Z,96300.83
2018-12-09T04:20:14.595Z,96292.91
2018-12-09T04:22:48.484Z,96284.52
2018-12-09T04:27:50.921Z,96293.82
2018-12-09T04:30:21.942Z,96281.17
2018-12-09T04:32:55.189Z,96276.27
2018-12-09T04:35:26.715Z,96273.20
2018-12-09T04:37:57.980Z,96271.41
2018-12-09T04:40:33.229Z,96274.05
2018-12-09T04:43:06.338Z,96281.70
2018-12-09T04:45:41.359Z,96288.15
2018-12-09T04:48:15.175Z,96285.43
2018-12-09T04:50:46.418Z,96298.19
2018-12-09T04:53:19.680Z,96293.50
2018-12-09T04:55:52.968Z,96301.19
2018-12-09T04:58:25.031Z,96302.49
2018-12-09T05:00:56.898Z,96302.38
2018-12-09T05:03:28.556Z,96309.15
2018-12-09T05:06:02.134Z,96302.77
2018-12-09T05:08:34.403Z,96305.84
2018-12-09T05:11:07.553Z,96312.04
2018-12-09T05:13:38.897Z,96325.97
2018-12-09T05:16:14.588Z,96311.23
2018-12-09T05:18:47.596Z,96321.81
2018-12-09T05:21:18.948Z,96323.57
2018-12-09T05:23:52.333Z,96333.44
2018-12-09T05:26:26.454Z,96338.06
2018-12-09T05:28:57.736Z,96331.64
2018-12-09T05:31:35.291Z,96337.06
2018-12-09T05:34:06.688Z,96329.17
2018-12-09T05:36:40.304Z,96341.75
2018-12-09T05:39:11.744Z,96333.54
2018-12-09T05:41:42.983Z,96344.15
2018-12-09T05:44:16.309Z,96331.32
2018-12-09T05:46:47.946Z,96318.28
2018-12-09T05:49:21.068Z,96337.84
2018-12-09T05:51:54.325Z,96340.70
2018-12-09T05:54:25.867Z,96351.51
2018-12-09T05:57:01.451Z,96356.63
2018-12-09T05:59:32.704Z,96362.47
2018-12-09T06:02:11.691Z,96356.02
2018-12-09T06:04:48.083Z,96362.53
2018-12-09T06:07:21.022Z,96352.81
2018-12-09T06:09:53.976Z,96358.88
2018-12-09T06:12:27.777Z,96368.84
2018-12-09T06:14:59.099Z,96366.23
2018-12-09T06:17:32.505Z,96361.45
2018-12-09T06:20:05.771Z,96375.91
2018-12-09T06:22:39.527Z,96373.69
2018-12-09T06:25:12.639Z,96377.22
2018-12-09T06:27:48.692Z,96382.56
2018-12-09T06:30:22.731Z,96381.02
2018-12-09T06:32:56.229Z,96366.84
2018-12-09T06:35:27.711Z,96371.84
2018-12-09T06:38:05.557Z,96380.48
2018-12-09T06:40:39.143Z,96387.23
2018-12-09T06:43:19.227Z,96387.23
2018-12-09T06:45:52.605Z,96386.61
2018-12-09T06:48:27.679Z,96383.72
2018-12-09T06:50:59.066Z,96391.70
2018-12-09T06:53:32.536Z,96382.41
2018-12-09T06:56:06.129Z,96380.39
2018-12-09T06:58:37.729Z,96386.39
2018-12-09T07:01:10.918Z,96392.59
2018-12-09T07:03:44.957Z,96392.16
2018-12-09T07:06:19.079Z,96400.80
2018-12-09T07:08:54.813Z,96408.49
2018-12-09T07:11:26.173Z,96409.03
2018-12-09T07:13:59.563Z,96403.58
2018-12-09T07:16:35.299Z,96409.34
2018-12-09T07:19:13.300Z,96404.14
2018-12-09T07:21:48.381Z,96415.70
2018-12-09T07:24:20.100Z,96415.31
2018-12-09T07:26:52.235Z,96423.01
2018-12-09T07:29:25.315Z,96427.77
2018-12-09T07:31:56.811Z,96420.72
2018-12-09T07:34:30.414Z,96416.88
2018-12-09T07:37:01.947Z,96430.77
2018-12-09T07:39:35.088Z,96425.94
2018-12-09T07:42:07.987Z,96417.16
2018-12-09T07:44:40.904Z,96408.27
2018-12-09T07:47:12.248Z,96417.02
2018-12-09T07:49:45.617Z,96422.70
2018-12-09T07:52:16.965Z,96418.14
2018-12-09T07:54:50.326Z,96416.56
2018-12-09T07:57:23.271Z,96426.15
2018-12-09T07:59:55.043Z,96443.40
2018-12-09T08:02:27.900Z,96444.50
2018-12-09T08:05:01.412Z,96447.77
2018-12-09T08:07:33.019Z,96449.08
2018-12-09T08:10:04.478Z,96456.77
2018-12-09T08:12:35.692Z,96459.77
2018-12-09T08:15:08.952Z,96469.58
2018-12-09T08:17:40.533Z,96457.97
2018-12-09T08:20:13.651Z,96462.77
2018-12-09T08:22:49.660Z,96468.41
2018-12-09T08:25:21.431Z,96466.66
2018-12-09T08:27:52.474Z,96464.50
2018-12-09T08:30:25.782Z,96470.95
2018-12-09T08:32:59.572Z,96468.20
2018-12-09T08:35:31.104Z,96471.87
2018-12-09T08:38:07.432Z,96478.02
2018-12-09T08:40:39.175Z,96469.97
2018-12-09T08:50:48.552Z,96493.30
2018-12-09T08:53:19.107Z,96505.65
2018-12-09T08:55:52.559Z,96501.98
2018-12-09T08:58:25.582Z,96506.42
2018-12-09T09:00:57.034Z,96513.45
2018-12-09T09:03:30.121Z,96509.04
2018-12-09T09:06:07.183Z,96522.09
2018-12-09T09:08:38.650Z,96516.59
2018-12-09T09:11:14.093Z,96523.86
2018-12-09T09:13:45.832Z,96515.32
2018-12-09T09:16:18.900Z,96527.25
2018-12-09T09:18:51.900Z,96531.13
2018-12-09T09:21:29.179Z,96533.28
2018-12-09T09:24:03.437Z,96532.83
2018-12-09T09:26:34.540Z,96533.46
2018-12-09T09:29:07.920Z,96536.67
2018-12-09T09:31:39.384Z,96550.27
2018-12-09T09:37:09.086Z,96543.91
2018-12-09T09:39:42.709Z,96544.55
2018-12-09T09:42:15.807Z,96552.39
2018-12-09T09:44:48.870Z,96547.45
2018-12-09T09:47:20.465Z,96534.24
2018-12-09T09:49:52.606Z,96533.64
2018-12-09T09:52:24.335Z,96538.30
2018-12-09T09:54:58.405Z,96542.75
2018-12-09T09:57:35.508Z,96549.67
2018-12-09T10:00:08.618Z,96553.91
2018-12-09T10:02:46.837Z,96552.53
2018-12-09T10:05:18.892Z,96557.51
2018-12-09T10:07:51.916Z,96545.11
2018-12-09T10:10:30.547Z,96541.33
2018-12-09T10:13:04.900Z,96542.63
2018-12-09T10:15:41.281Z,96540.64
2018-12-09T10:18:14.001Z,96545.50
2018-12-09T10:20:48.087Z,96551.50
2018-12-09T10:23:21.545Z,96549.59
2018-12-09T10:26:00.345Z,96549.20
2018-12-09T10:28:37.478Z,96528.36
2018-12-09T10:31:08.892Z,96545.20
2018-12-09T10:33:40.117Z,96540.48
2018-12-09T10:36:17.452Z,96553.06
2018-12-09T10:38:53.300Z,96541.14
2018-12-09T10:41:28.571Z,96544.46
2018-12-09T10:44:04.123Z,96549.11
2018-12-09T10:46:39.081Z,96544.92
2018-12-09T10:49:16.220Z,96538.45
2018-12-09T10:51:51.579Z,96547.22
2018-12-09T10:54:23.719Z,96553.23
2018-12-09T10:56:55.192Z,96545.19
2018-12-09T10:59:30.433Z,96535.50
2018-12-09T11:02:08.635Z,96553.27
2018-12-09T11:04:41.923Z,96543.54
2018-12-09T11:07:16.968Z,96543.73
2018-12-09T11:09:51.344Z,96534.70
2018-12-09T11:12:24.552Z,96541.39
2018-12-09T11:15:00.125Z,96537.39
2018-12-09T11:17:33.777Z,96552.62
2018-12-09T11:20:08.543Z,96559.81
2018-12-09T11:22:43.645Z,96556.52
2018-12-09T11:28:38.289Z,96558.31
2018-12-09T11:31:12.649Z,96573.81
2018-12-09T11:33:52.774Z,96570.42
2018-12-09T11:36:25.119Z,96579.97
2018-12-09T11:39:06.422Z,96583.44
2018-12-09T11:41:40.133Z,96580.05
2018-12-09T11:44:16.530Z,96582.27
2018-12-09T11:46:51.807Z,96580.38
2018-12-09T11:49:23.416Z,96588.48
2018-12-09T11:51:56.639Z,96603.02
2018-12-09T11:54:30.871Z,96596.80
2018-12-09T11:57:07.079Z,96599.34
2018-12-09T11:59:38.342Z,96599.52
2018-12-09T12:02:19.786Z,96612.41
2018-12-09T12:04:45.599Z,96606.94
2018-12-09T12:07:18.784Z,96611.11
2018-12-09T12:09:50.213Z,96619.39
2018-12-09T12:12:21.531Z,96645.06
2018-12-09T12:15:01.964Z,96649.64
2018-12-09T12:17:43.780Z,96637.91
2018-12-09T12:20:19.424Z,96659.96
2018-12-09T12:22:50.885Z,96667.06
2018-12-09T12:25:28.259Z,96673.82
2018-12-09T12:28:12.530Z,96664.45
2018-12-09T12:30:45.939Z,96660.34
2018-12-09T12:33:18.075Z,96664.74
2018-12-09T12:35:59.014Z,96664.94
2018-12-09T12:38:30.364Z,96676.84
2018-12-09T12:41:05.178Z,96670.61
2018-12-09T12:43:39.992Z,96680.03
2018-12-09T12:46:27.428Z,96686.17
2018-12-09T12:49:02.643Z,96684.17
2018-12-09T12:51:39.216Z,96683.27
2018-12-09T12:54:15.572Z,96690.00
2018-12-09T12:56:51.656Z,96702.98
2018-12-09T12:59:28.593Z,96702.99
2018-12-09T13:02:05.270Z,96705.80
2018-12-09T13:04:41.653Z,96708.73
2018-12-09T13:07:17.966Z,96713.03
2018-12-09T13:10:01.321Z,96721.16
2018-12-09T13:12:34.581Z,96729.17
2018-12-09T13:15:09.295Z,96725.91
2018-12-09T13:17:43.208Z,96739.17
2018-12-09T13:20:17.177Z,96734.58
2018-12-09T13:22:53.007Z,96743.94
2018-12-09T13:25:28.090Z,96753.39
2018-12-09T13:28:14.395Z,96754.87
2018-12-09T13:30:51.390Z,96761.09
2018-12-09T13:33:32.650Z,96753.36
2018-12-09T13:36:13.229Z,96753.02
2018-12-09T13:38:51.994Z,96757.88
2018-12-09T13:41:26.772Z,96761.86
2018-12-09T13:44:12.166Z,96762.76
2018-12-09T13:49:38.270Z,96774.02
2018-12-09T13:52:10.213Z,96780.08
2018-12-09T13:54:45.491Z,96781.89
2018-12-09T13:57:30.236Z,96776.37
2018-12-09T14:00:09.759Z,96781.61
2018-12-09T14:02:50.378Z,96785.27
2018-12-09T14:05:23.343Z,96799.25
2018-12-09T14:07:55.272Z,96796.35
2018-12-09T14:10:29.632Z,96799.36
2018-12-09T14:13:04.843Z,96800.33
2018-12-09T14:15:39.150Z,96813.84
2018-12-09T14:18:13.386Z,96809.70
2018-12-09T14:20:49.406Z,96817.55
2018-12-09T14:23:26.919Z,96807.70
2018-12-09T14:26:01.673Z,96813.77
2018-12-09T14:28:41.821Z,96811.76
2018-12-09T14:31:14.479Z,96824.43
2018-12-09T14:33:47.096Z,96825.78
2018-12-09T14:36:22.501Z,96831.92
2018-12-09T14:38:57.281Z,96837.13
2018-12-09T14:41:32.615Z,96845.00
2018-12-09T14:44:07.041Z,96846.89
2018-12-09T14:46:44.028Z,96852.24
2018-12-09T14:49:17.987Z,96861.03
2018-12-09T14:51:53.241Z,96868.00
2018-12-09T14:54:45.682Z,96866.30
2018-12-09T14:57:18.146Z,96872.54
2018-12-09T14:59:52.517Z,96876.89
2018-12-09T15:02:30.818Z,96881.28
2018-12-09T15:05:05.643Z,96883.08
2018-12-09T15:07:44.367Z,96893.13
2018-12-09T15:10:24.382Z,96905.68
2018-12-09T15:13:02.190Z,96915.72
2018-12-09T15:15:43.011Z,96921.33
2018-12-09T15:18:17.125Z,96925.58
2018-12-09T15:20:53.347Z,96938.45
2018-12-09T15:23:28.609Z,96944.00
2018-12-09T15:26:04.447Z,96950.77
2018-12-09T15:28:39.676Z,96951.23
2018-12-09T15:31:15.579Z,96949.84
2018-12-09T15:33:48.466Z,96958.41
2018-12-09T15:36:24.606Z,96957.95
2018-12-09T15:39:00.310Z,96952.30
2018-12-09T15:41:36.507Z,96964.86
2018-12-09T15:44:08.487Z,96965.26
2018-12-09T15:46:40.846Z,96957.50
2018-12-09T15:49:12.679Z,96962.97
2018-12-09T15:51:46.550Z,96975.29
2018-12-09T15:54:18.588Z,96976.10
2018-12-09T15:56:50.866Z,96982.02
2018-12-09T15:59:31.984Z,96981.56
2018-12-09T16:02:03.778Z,96978.88
2018-12-09T16:04:38.480Z,96974.02
2018-12-09T16:07:10.868Z,96986.62
2018-12-09T16:09:49.206Z,96991.19
2018-12-09T16:12:23.454Z,96994.20
2018-12-09T16:14:56.639Z,96989.88
2018-12-09T16:17:29.616Z,96993.40
2018-12-09T16:20:02.721Z,97002.11
2018-12-09T16:22:34.300Z,96989.88
2018-12-09T16:25:07.977Z,97001.11
2018-12-09T16:27:46.775Z,96995.81
2018-12-09T16:30:24.546Z,97010.53
2018-12-09T16:32:56.677Z,97001.02
2018-12-09T16:35:36.083Z,97002.67
2018-12-09T16:38:11.009Z,97007.47
2018-12-09T16:40:46.143Z,97005.33
2018-12-09T16:43:22.062Z,97011.43
2018-12-09T16:45:57.155Z,97023.55
2018-12-09T16:48:31.693Z,97026.55
2018-12-09T16:51:07.617Z,97032.25
2018-12-09T16:53:40.105Z,97030.64
2018-12-09T16:56:16.166Z,97034.05
2018-12-09T16:58:52.456Z,97029.80
2018-12-09T17:01:26.509Z,97029.80
2018-12-09T17:04:00.702Z,97047.06
2018-12-09T17:06:34.529Z,97053.94
2018-12-09T17:09:11.068Z,97061.70
2018-12-09T17:11:46.093Z,97072.88
2018-12-09T17:14:23.888Z,97068.48
2018-12-09T17:16:58.046Z,97081.35
2018-12-09T17:19:34.177Z,97085.97
2018-12-09T17:22:05.792Z,97084.22
2018-12-09T17:24:38.949Z,97088.53
2018-12-09T17:27:10.498Z,97090.64
2018-12-09T17:29:43.997Z,97095.44
2018-12-09T17:32:14.600Z,97103.25
2018-12-09T17:34:45.708Z,97103.75
2018-12-09T17:37:16.608Z,97115.06
2018-12-09T17:39:52.134Z,97114.21
2018-12-09T17:42:23.795Z,97126.34
2018-12-09T17:44:56.911Z,97128.34
2018-12-09T17:47:28.997Z,97138.59
2018-12-09T17:50:00.289Z,97142.95
2018-12-09T17:52:33.763Z,97146.67
2018-12-09T17:55:11.981Z,97148.32
2018-12-09T17:57:52.153Z,97159.06
2018-12-09T18:00:25.678Z,97172.98
2018-12-09T18:02:57.274Z,97175.19
2018-12-09T18:05:31.165Z,97176.89
2018-12-09T18:08:04.448Z,97181.70
2018-12-09T18:10:38.299Z,97193.02
2018-12-09T18:13:09.517Z,97198.32
2018-12-09T18:15:40.923Z,97199.35
2018-12-09T18:18:11.650Z,97208.88
2018-12-09T18:20:45.390Z,97216.83
2018-12-09T18:23:17.136Z,97220.78
2018-12-09T18:25:50.387Z,97227.66
2018-12-09T18:28:24.102Z,97231.64
2018-12-09T18:30:55.567Z,97239.10
2018-12-09T18:33:29.046Z,97245.56
2018-12-09T18:36:01.457Z,97245.58
2018-12-09T18:38:34.941Z,97256.44
2018-12-09T18:41:06.983Z,97261.81
2018-12-09T18:43:38.457Z,97270.97
2018-12-09T18:46:11.903Z,97276.18
2018-12-09T18:48:45.562Z,97296.97
2018-12-09T18:51:16.933Z,97295.67
2018-12-09T18:53:47.765Z,97295.34
2018-12-09T19:11:31.192Z,97343.94
2018-12-09T19:14:05.116Z,97350.01
2018-12-09T19:16:36.527Z,97358.34
2018-12-09T19:19:09.780Z,97361.05
2018-12-09T19:21:42.884Z,97368.38
2018-12-09T19:24:14.267Z,97373.89
2018-12-09T19:26:45.389Z,97374.75
2018-12-09T19:29:19.079Z,97389.65
2018-12-09T19:31:51.405Z,97389.31
2018-12-09T19:34:23.126Z,97397.67
2018-12-09T19:36:54.198Z,97395.52
2018-12-09T19:39:25.561Z,97404.93
2018-12-09T19:41:57.047Z,97417.94
2018-12-09T19:44:30.389Z,97406.61
2018-12-09T19:47:02.757Z,97417.02
2018-12-09T19:49:37.731Z,97432.57
2018-12-09T19:52:11.826Z,97435.17
2018-12-09T19:54:45.435Z,97435.99
2018-12-09T19:57:19.424Z,97439.42
2018-12-09T19:59:53.173Z,97449.73
2018-12-09T20:02:27.035Z,97445.75
2018-12-09T20:04:58.802Z,97449.14
2018-12-09T20:07:32.890Z,97465.63
2018-12-09T20:10:08.822Z,97471.42
2018-12-09T20:12:41.423Z,97479.36
2018-12-09T20:15:13.019Z,97466.44
2018-12-09T20:17:50.822Z,97475.72
2018-12-09T20:20:24.533Z,97468.95
2018-12-09T20:22:58.281Z,97475.52
2018-12-09T20:25:29.894Z,97501.58
2018-12-09T20:28:03.571Z,97511.07
2018-12-09T20:30:37.420Z,97513.20
2018-12-09T20:33:12.548Z,97515.80
2018-12-09T20:35:46.435Z,97514.88
2018-12-09T20:38:20.356Z,97524.34
2018-12-09T20:40:56.178Z,97524.82
2018-12-09T20:43:28.154Z,97526.13
2018-12-09T20:46:03.140Z,97532.16
2018-12-09T20:48:37.569Z,97533.84
2018-12-09T20:51:11.078Z,97540.70
2018-12-09T20:53:42.993Z,97547.62
2018-12-09T20:56:16.892Z,97550.61
2018-12-09T20:58:54.301Z,97550.19
2018-12-09T21:01:26.476Z,97559.39
2018-12-09T21:04:00.285Z,97565.52
2018-12-09T21:06:33.970Z,97572.44
2018-12-09T21:09:08.910Z,97576.84
2018-12-09T21:11:40.571Z,97583.44
2018-12-09T21:14:14.811Z,97587.75
2018-12-09T21:16:58.125Z,97595.92
2018-12-09T21:19:30.276Z,97594.15
2018-12-09T21:22:04.074Z,97608.41
2018-12-09T21:24:39.195Z,97603.67
2018-12-09T21:27:10.991Z,97618.85
2018-12-09T21:29:43.603Z,97612.01
2018-12-09T21:32:18.838Z,97621.64
2018-12-09T21:34:50.837Z,97622.22
2018-12-09T21:37:24.320Z,97638.42
2018-12-09T21:39:55.659Z,97634.55
2018-12-09T21:42:28.894Z,97637.95
2018-12-09T21:45:00.097Z,97648.83
2018-12-09T21:47:31.193Z,97651.45
2018-12-09T21:50:04.444Z,97655.36
2018-12-09T21:52:36.056Z,97654.47
2018-12-09T21:55:10.196Z,97664.93
2018-12-09T21:57:41.222Z,97668.31
2018-12-09T22:00:14.532Z,97672.66
2018-12-09T22:02:48.496Z,97679.16
2018-12-09T22:05:20.152Z,97686.52
2018-12-09T22:07:51.618Z,97689.13
2018-12-09T22:10:24.709Z,97685.69
2018-12-09T22:12:58.578Z,97677.52
2018-12-09T22:15:31.585Z,97680.61
2018-12-09T22:18:02.526Z,97686.73
2018-12-09T22:20:33.767Z,97681.09
2018-12-09T22:23:08.705Z,97691.54
2018-12-09T22:25:40.108Z,97690.21
2018-12-09T22:28:13.439Z,97698.09
2018-12-09T22:30:46.692Z,97705.89
2018-12-09T22:33:19.738Z,97709.78
2018-12-09T22:35:52.936Z,97708.91
2018-12-09T22:38:24.695Z,97708.38
2018-12-09T22:40:58.840Z,97710.05
2018-12-09T22:43:30.272Z,97716.54
2018-12-09T22:46:03.488Z,97716.00
2018-12-09T22:48:34.950Z,97724.16
2018-12-09T22:51:08.167Z,97737.57
2018-12-09T22:53:39.866Z,97748.36
2018-12-09T22:56:13.042Z,97761.32
2018-12-09T22:58:44.736Z,97776.45
2018-12-09T23:01:21.421Z,97777.36
2018-12-09T23:03:54.620Z,97787.04
2018-12-09T23:06:27.732Z,97781.94
2018-12-09T23:09:01.685Z,97802.77
2018-12-09T23:11:33.848Z,97813.29
2018-12-09T23:14:09.628Z,97816.78
2018-12-09T23:16:40.817Z,97824.66
2018-12-09T23:19:14.044Z,97823.50
2018-12-09T23:21:45.601Z,97811.95
2018-12-09T23:24:18.918Z,97827.54
2018-12-09T23:26:50.557Z,97828.72
2018-12-09T23:29:30.356Z,97828.26
2018-12-09T23:32:04.019Z,97832.18
2018-12-09T23:34:35.135Z,97839.62
2018-12-09T23:37:08.385Z,97838.81
2018-12-09T23:39:41.674Z,97840.16
2018-12-09T23:42:12.896Z,97844.52
2018-12-09T23:44:46.328Z,97832.86
2018-12-09T23:47:19.309Z,97847.64
2018-12-09T23:49:50.924Z,97854.58
2018-12-09T23:52:24.068Z,97858.05
2018-12-09T23:54:57.049Z,97854.19
2018-12-09T23:57:30.270Z,97853.33
